Time;durP1;ratioP1;P1;durP2;ratioP2;P2;SDS_P1;SDS_P2;PMS_P1;PMS_P2;Temp;Humidity;BMP_temperature;BMP_pressure;BME280_temperature;BME280_humidity;BME280_pressure;Samples;Min_cycle;Max_cycle;Signal;HPM_P1;HPM_P2
2021/05/19 00:01:28;;;;;;;4.15;1.40;;;;;;;20.94;42.75;100748.34;5064333;28;20029;-70
2021/05/19 00:03:53;;;;;;;2.05;1.15;;;;;;;20.94;42.83;100745.66;5060499;28;20112;-70
2021/05/19 00:06:19;;;;;;;3.10;1.50;;;;;;;20.93;42.35;100745.81;5068812;28;20357;-70
2021/05/19 00:08:44;;;;;;;3.33;1.30;;;;;;;20.92;42.59;100738.75;5061861;28;20446;-70
2021/05/19 00:11:10;;;;;;;2.75;1.50;;;;;;;20.90;43.07;100740.75;5068231;28;20062;-71
2021/05/19 00:13:36;;;;;;;2.40;1.20;;;;;;;20.90;42.67;100746.09;5065293;28;20342;-71
2021/05/19 00:16:03;;;;;;;2.63;1.38;;;;;;;20.89;42.31;100739.91;5070474;28;20023;-71
2021/05/19 00:18:29;;;;;;;3.50;1.65;;;;;;;20.87;42.48;100744.53;5058563;28;20472;-70
2021/05/19 00:20:55;;;;;;;2.30;1.30;;;;;;;20.85;42.79;100740.28;5063396;28;20033;-71
2021/05/19 00:23:20;;;;;;;2.55;1.30;;;;;;;20.85;42.72;100741.13;5055473;28;20337;-71
2021/05/19 00:25:46;;;;;;;3.08;1.42;;;;;;;20.85;42.51;100743.81;5071741;28;20025;-70
2021/05/19 00:28:11;;;;;;;2.55;1.30;;;;;;;20.83;42.79;100743.13;5069810;28;20103;-70
2021/05/19 00:30:37;;;;;;;3.03;1.60;;;;;;;20.81;42.44;100735.22;5063684;28;20012;-71
2021/05/19 00:33:03;;;;;;;2.47;1.33;;;;;;;20.81;42.68;100745.06;5065221;28;20032;-71
2021/05/19 00:35:28;;;;;;;2.58;1.35;;;;;;;20.78;42.94;100742.66;5062981;28;20024;-70
2021/05/19 00:37:54;;;;;;;3.17;1.50;;;;;;;20.78;42.44;100745.34;5068541;28;20040;-71
2021/05/19 00:40:20;;;;;;;2.75;1.50;;;;;;;20.77;42.49;100743.66;5067824;28;20028;-70
2021/05/19 00:42:45;;;;;;;2.47;1.27;;;;;;;20.78;42.53;100742.66;5064243;28;20069;-70
2021/05/19 00:45:12;;;;;;;2.60;1.30;;;;;;;20.76;42.91;100741.97;5060495;28;20033;-70
2021/05/19 00:47:39;;;;;;;3.33;1.20;;;;;;;20.73;42.83;100740.41;5067929;28;20031;-71
2021/05/19 00:50:07;;;;;;;2.88;1.52;;;;;;;20.73;42.81;100751.09;5065805;28;20032;-70
2021/05/19 00:52:33;;;;;;;3.33;1.58;;;;;;;20.73;42.60;100755.59;5067541;28;20020;-70
2021/05/19 00:54:58;;;;;;;3.38;1.55;;;;;;;20.71;42.63;100755.72;5064291;28;20495;-70
2021/05/19 00:57:23;;;;;;;2.28;1.27;;;;;;;20.72;42.67;100754.75;5066154;28;20044;-71
2021/05/19 00:59:49;;;;;;;3.25;1.48;;;;;;;20.73;42.35;100760.94;5051620;28;20025;-71
2021/05/19 01:02:14;;;;;;;3.30;1.40;;;;;;;20.70;43.04;100754.03;5068976;28;20470;-70
2021/05/19 01:04:40;;;;;;;3.53;1.60;;;;;;;20.68;42.61;100750.66;5069923;28;20085;-71
2021/05/19 01:07:18;;;;;;;2.50;1.40;;;;;;;20.68;42.39;100742.63;5067098;28;20364;-71
2021/05/19 01:09:43;;;;;;;3.30;1.30;;;;;;;20.68;42.94;100752.47;5057958;28;20021;-70
2021/05/19 01:12:11;;;;;;;3.72;1.50;;;;;;;20.68;42.85;100755.16;5059659;28;20027;-71
2021/05/19 01:14:38;;;;;;;3.83;1.40;;;;;;;20.64;42.64;100743.88;5055993;28;20463;-71
2021/05/19 01:17:03;;;;;;;3.05;1.65;;;;;;;20.62;42.89;100745.03;5067746;28;20107;-71
2021/05/19 01:19:30;;;;;;;2.75;1.30;;;;;;;20.62;42.78;100747.69;5068477;28;20037;-70
2021/05/19 01:21:56;;;;;;;3.50;1.40;;;;;;;20.65;42.31;100750.94;5063753;28;20021;-71
2021/05/19 01:24:22;;;;;;;4.18;1.50;;;;;;;20.65;42.84;100753.63;5069607;28;20020;-71
2021/05/19 01:26:47;;;;;;;2.45;1.40;;;;;;;20.65;42.79;100758.09;5063333;28;20094;-71
2021/05/19 01:29:14;;;;;;;1.80;1.30;;;;;;;20.62;42.56;100761.06;5069803;28;20029;-70
2021/05/19 01:31:39;;;;;;;3.13;1.60;;;;;;;20.60;42.31;100755.81;5061913;28;20017;-72
2021/05/19 01:34:05;;;;;;;2.90;1.40;;;;;;;20.57;42.75;100751.59;5062341;28;20471;-71
2021/05/19 01:36:30;;;;;;;3.20;1.52;;;;;;;20.58;42.92;100755.97;5067643;28;20553;-71
2021/05/19 01:38:56;;;;;;;3.53;1.55;;;;;;;20.60;42.27;100755.81;5069936;28;20033;-71
2021/05/19 01:41:21;;;;;;;2.53;1.23;;;;;;;20.58;42.92;100753.31;5066982;28;20055;-71
2021/05/19 01:43:46;;;;;;;2.95;1.45;;;;;;;20.62;42.80;100755.72;5062665;28;20398;-71
2021/05/19 01:46:12;;;;;;;2.47;1.27;;;;;;;20.64;42.51;100754.56;5072153;28;20052;-70
2021/05/19 01:48:38;;;;;;;1.90;1.17;;;;;;;20.63;42.38;100755.56;5077125;28;20055;-71
2021/05/19 01:51:04;;;;;;;3.45;1.80;;;;;;;20.66;42.75;100762.47;5067012;28;20468;-71
2021/05/19 01:53:31;;;;;;;2.60;1.38;;;;;;;20.66;42.53;100760.63;5068015;28;20017;-71
2021/05/19 01:55:59;;;;;;;1.70;1.07;;;;;;;20.67;42.81;100759.66;5069569;28;20036;-70
2021/05/19 01:58:24;;;;;;;2.65;1.48;;;;;;;20.67;42.76;100762.31;5066171;28;20025;-71
2021/05/19 02:00:49;;;;;;;2.38;1.27;;;;;;;20.67;42.74;100756.97;5078896;28;20024;-71
2021/05/19 02:03:18;;;;;;;2.65;1.27;;;;;;;20.70;42.50;100766.53;5069679;28;20020;-71
2021/05/19 02:05:44;;;;;;;2.50;1.27;;;;;;;20.70;42.68;100764.72;5068400;28;20120;-70
2021/05/19 02:08:09;;;;;;;2.90;1.58;;;;;;;20.71;42.70;100763.72;5070236;28;20371;-71
2021/05/19 02:10:36;;;;;;;2.47;1.20;;;;;;;20.73;42.20;100759.09;5072602;28;20519;-71
2021/05/19 02:13:07;;;;;;;2.83;1.27;;;;;;;20.74;41.96;100763.47;5071491;28;20017;-70
2021/05/19 02:15:33;;;;;;;3.00;1.42;;;;;;;20.75;41.92;100767.84;5068839;28;20025;-70
2021/05/19 02:17:59;;;;;;;2.47;1.20;;;;;;;20.76;42.54;100774.03;5073348;28;20410;-71
2021/05/19 02:20:24;;;;;;;2.42;1.30;;;;;;;20.76;42.53;100774.88;5070531;28;20046;-71
2021/05/19 02:22:50;;;;;;;2.20;1.27;;;;;;;20.78;42.11;100769.38;5073221;28;20013;-71
2021/05/19 02:25:17;;;;;;;2.25;1.20;;;;;;;20.78;42.40;100769.38;5068273;28;20112;-70
2021/05/19 02:27:46;;;;;;;2.05;1.15;;;;;;;20.76;42.21;100764.19;5070907;28;20025;-70
2021/05/19 02:30:12;;;;;;;2.83;1.30;;;;;;;20.79;42.13;100766.59;5072094;28;20050;-71
2021/05/19 02:32:38;;;;;;;2.90;1.20;;;;;;;20.81;42.41;100769.94;5071230;28;20029;-71
2021/05/19 02:35:04;;;;;;;2.25;1.20;;;;;;;20.80;42.35;100768.25;5069541;28;20020;-71
2021/05/19 02:37:30;;;;;;;2.97;1.20;;;;;;;20.81;41.93;100761.94;5070356;28;20036;-71
2021/05/19 02:39:55;;;;;;;4.75;1.20;;;;;;;20.83;42.63;100759.16;5069067;28;20036;-71
2021/05/19 02:42:20;;;;;;;2.08;1.10;;;;;;;20.82;42.26;100763.66;5063037;28;20021;-72
2021/05/19 02:44:46;;;;;;;2.65;1.20;;;;;;;20.82;42.52;100763.66;5070622;28;20017;-71
2021/05/19 02:47:11;;;;;;;2.17;1.10;;;;;;;20.86;42.63;100761.53;5067528;28;20047;-70
2021/05/19 02:49:36;;;;;;;3.67;1.30;;;;;;;20.88;42.26;100762.22;5063567;28;20051;-71
2021/05/19 02:52:03;;;;;;;1.73;0.98;;;;;;;20.87;42.31;100763.22;5070471;28;20586;-71
2021/05/19 02:54:28;;;;;;;3.53;1.50;;;;;;;20.87;42.07;100760.56;5072434;28;20127;-70
2021/05/19 02:56:53;;;;;;;2.65;1.40;;;;;;;20.88;42.09;100766.72;5050513;28;20132;-71
2021/05/19 02:59:19;;;;;;;2.85;1.38;;;;;;;20.86;42.03;100761.53;5067392;28;20390;-71
2021/05/19 03:01:44;;;;;;;3.75;1.60;;;;;;;20.88;41.86;100769.41;5071480;28;20502;-71
2021/05/19 03:04:09;;;;;;;2.53;1.23;;;;;;;20.87;42.16;100770.41;5069716;28;20472;-71
2021/05/19 03:06:36;;;;;;;2.83;1.40;;;;;;;20.87;41.43;100767.72;5061159;28;20021;-70
2021/05/19 03:09:02;;;;;;;2.72;1.30;;;;;;;20.87;42.01;100760.56;5083435;28;20058;-71
2021/05/19 03:11:27;;;;;;;2.60;1.27;;;;;;;20.86;41.61;100766.03;5057108;28;20031;-70
2021/05/19 03:13:53;;;;;;;2.45;1.35;;;;;;;20.86;42.19;100769.56;5052510;28;20392;-71
2021/05/19 03:16:19;;;;;;;2.20;1.30;;;;;;;20.84;41.96;100768.84;5069310;28;20036;-71
2021/05/19 03:18:44;;;;;;;1.83;1.10;;;;;;;20.81;42.26;100764.59;5054453;28;20098;-70
2021/05/19 03:21:09;;;;;;;1.67;1.10;;;;;;;20.83;42.03;100765.31;5070147;28;20020;-71
2021/05/19 03:23:34;;;;;;;3.08;1.38;;;;;;;20.81;41.49;100764.59;5069885;28;20078;-71
2021/05/19 03:26:00;;;;;;;2.40;1.15;;;;;;;20.80;41.66;100767.41;5069810;28;20652;-70
2021/05/19 03:28:26;;;;;;;2.08;1.30;;;;;;;20.79;42.25;100763.06;5072576;28;20028;-70
2021/05/19 03:30:51;;;;;;;1.83;0.90;;;;;;;20.79;42.20;100765.75;5070943;28;20112;-71
2021/05/19 03:33:17;;;;;;;2.15;1.08;;;;;;;20.74;41.67;100762.63;5070297;28;20059;-70
2021/05/19 03:35:42;;;;;;;2.50;1.52;;;;;;;20.76;41.99;100766.00;5068652;28;20431;-70
2021/05/19 03:38:08;;;;;;;3.13;1.25;;;;;;;20.75;42.09;100762.50;5065655;28;20108;-71
2021/05/19 03:40:33;;;;;;;1.92;1.05;;;;;;;20.74;42.47;100767.97;5055219;28;20116;-71
2021/05/19 03:42:59;;;;;;;2.38;1.05;;;;;;;20.72;41.68;100767.28;5064173;28;20032;-71
2021/05/19 03:45:24;;;;;;;2.47;1.30;;;;;;;20.70;42.01;100772.72;5069929;28;20123;-71
2021/05/19 03:47:52;;;;;;;2.47;1.15;;;;;;;20.71;42.14;100776.25;5070249;28;20028;-71
2021/05/19 03:50:19;;;;;;;2.70;1.58;;;;;;;20.65;42.40;100779.44;5067417;28;20025;-71
2021/05/19 03:52:45;;;;;;;2.13;1.13;;;;;;;20.69;41.93;100772.88;5068913;28;20020;-70
2021/05/19 03:55:13;;;;;;;2.95;1.60;;;;;;;20.70;42.38;100771.88;5071542;28;20031;-71
2021/05/19 03:57:39;;;;;;;2.50;1.30;;;;;;;20.71;42.19;100781.59;5058715;28;20417;-70
2021/05/19 04:00:07;;;;;;;3.17;1.33;;;;;;;20.71;41.69;100781.59;5070912;28;20054;-72
2021/05/19 04:02:33;;;;;;;2.35;1.30;;;;;;;20.71;42.09;100787.75;5065462;28;20034;-70
2021/05/19 04:04:58;;;;;;;1.88;1.13;;;;;;;20.70;41.94;100774.56;5075192;28;20033;-70
2021/05/19 04:07:23;;;;;;;3.05;1.27;;;;;;;20.74;42.00;100790.16;5070681;28;20024;-71
2021/05/19 04:09:49;;;;;;;2.63;1.40;;;;;;;20.77;42.87;100792.56;5060018;28;20028;-71
2021/05/19 04:12:14;;;;;;;2.35;1.33;;;;;;;20.78;42.70;100790.75;5070316;28;20033;-70
2021/05/19 04:14:39;;;;;;;1.95;1.05;;;;;;;20.82;43.02;100798.38;5070244;28;20063;-71
2021/05/19 04:17:04;;;;;;;1.83;1.10;;;;;;;20.88;42.67;100798.78;5061132;28;20034;-71
2021/05/19 04:19:30;;;;;;;4.03;1.60;;;;;;;20.92;42.77;100794.88;5067917;28;20449;-71
2021/05/19 04:21:55;;;;;;;2.42;1.40;;;;;;;20.98;42.47;100802.34;5068842;28;20020;-70
2021/05/19 04:24:21;;;;;;;1.65;1.13;;;;;;;20.99;42.14;100798.69;5070257;28;20371;-71
2021/05/19 04:26:46;;;;;;;2.20;1.30;;;;;;;21.02;42.32;100799.25;5068865;28;20032;-71
2021/05/19 04:29:11;;;;;;;2.30;1.33;;;;;;;21.07;42.12;100798.84;5069380;28;20076;-70
2021/05/19 04:31:37;;;;;;;2.42;1.20;;;;;;;21.09;42.02;100801.38;5065241;28;20390;-71
2021/05/19 04:34:02;;;;;;;2.28;1.13;;;;;;;21.12;42.26;100803.78;5070847;28;20020;-71
2021/05/19 04:36:27;;;;;;;2.47;1.20;;;;;;;21.13;42.13;100800.09;5066538;28;20055;-70
2021/05/19 04:38:53;;;;;;;1.45;1.00;;;;;;;21.15;41.91;100816.88;5065114;28;20100;-71
2021/05/19 04:41:20;;;;;;;2.03;1.20;;;;;;;21.17;41.88;100806.91;5061582;28;20025;-71
2021/05/19 04:43:45;;;;;;;2.15;1.40;;;;;;;21.16;41.66;100807.84;5058377;28;20036;-70
2021/05/19 04:46:10;;;;;;;2.55;1.27;;;;;;;21.19;41.81;100818.28;5071027;28;20028;-71
2021/05/19 04:48:36;;;;;;;1.25;0.88;;;;;;;21.23;41.75;100822.34;5057983;28;20472;-70
2021/05/19 04:51:01;;;;;;;3.15;1.73;;;;;;;21.23;41.82;100815.22;5068867;28;20028;-70
2021/05/19 04:53:26;;;;;;;1.80;1.15;;;;;;;21.25;41.60;100823.91;5057747;28;20024;-70
2021/05/19 04:55:53;;;;;;;1.98;1.15;;;;;;;21.26;41.67;100825.63;5066087;28;20503;-71
2021/05/19 04:58:18;;;;;;;2.60;1.10;;;;;;;21.27;41.71;100823.81;5070641;28;20036;-71
2021/05/19 05:00:44;;;;;;;2.88;1.40;;;;;;;21.28;41.83;100830.81;5071005;28;20029;-70
2021/05/19 05:03:11;;;;;;;2.20;1.10;;;;;;;21.29;41.85;100838.69;5070439;28;20027;-71
2021/05/19 05:05:36;;;;;;;1.98;1.23;;;;;;;21.32;41.76;100844.75;5081716;28;20021;-71
2021/05/19 05:08:01;;;;;;;2.55;1.20;;;;;;;21.33;41.76;100838.41;5070839;28;20044;-70
2021/05/19 05:10:26;;;;;;;1.67;1.05;;;;;;;21.32;41.44;100840.25;5071311;28;20509;-70
2021/05/19 05:12:52;;;;;;;2.47;0.95;;;;;;;21.25;41.75;100833.78;5069786;28;20051;-71
2021/05/19 05:15:18;;;;;;;3.42;1.13;;;;;;;21.27;41.39;100834.50;5072692;28;20157;-71
2021/05/19 05:17:44;;;;;;;1.65;0.88;;;;;;;21.26;41.51;100832.78;5070910;28;20033;-70
2021/05/19 05:20:10;;;;;;;1.92;1.13;;;;;;;21.25;41.53;100839.97;5071557;28;20032;-71
2021/05/19 05:22:43;;;;;;;1.48;0.90;;;;;;;21.18;41.82;100822.78;5070726;28;20028;-70
2021/05/19 05:25:09;;;;;;;4.15;2.55;;;;;;;21.22;42.17;100842.06;5069719;28;20032;-71
2021/05/19 05:27:34;;;;;;;2.20;1.13;;;;;;;21.22;41.43;100840.22;5070494;28;20028;-71
2021/05/19 05:30:00;;;;;;;2.33;1.25;;;;;;;21.20;41.61;100838.69;5069582;28;20657;-71
2021/05/19 05:32:25;;;;;;;2.10;1.00;;;;;;;21.19;42.09;100837.81;5070242;28;20020;-71
2021/05/19 05:34:50;;;;;;;2.40;1.13;;;;;;;21.17;41.39;100837.13;5069668;28;20094;-72
2021/05/19 05:37:16;;;;;;;3.03;1.70;;;;;;;21.16;41.88;100839.94;5070037;28;20651;-71
2021/05/19 05:39:41;;;;;;;2.45;1.38;;;;;;;21.16;41.70;100839.94;5071480;28;20479;-70
2021/05/19 05:42:06;;;;;;;2.95;1.13;;;;;;;21.13;41.25;100840.19;5071467;28;20047;-72
2021/05/19 05:44:32;;;;;;;2.33;1.20;;;;;;;21.10;42.11;100849.34;5073813;28;20511;-72
2021/05/19 05:46:58;;;;;;;2.60;1.20;;;;;;;21.11;42.18;100848.38;5073119;28;20135;-71
2021/05/19 05:49:23;;;;;;;2.47;1.45;;;;;;;21.11;42.17;100856.38;5072367;28;20032;-71
2021/05/19 05:51:48;;;;;;;2.15;1.17;;;;;;;21.15;41.71;100863.16;5073944;28;20041;-71
2021/05/19 05:54:14;;;;;;;4.00;1.10;;;;;;;21.17;41.67;100860.34;5073721;28;20149;-71
2021/05/19 05:56:41;;;;;;;2.92;1.40;;;;;;;21.16;41.66;100864.00;5071918;28;20363;-72
2021/05/19 05:59:07;;;;;;;1.23;0.82;;;;;;;21.19;42.02;100861.03;5072750;28;20031;-71
2021/05/19 06:01:33;;;;;;;2.97;1.20;;;;;;;21.22;41.47;100871.47;5070777;28;20669;-72
2021/05/19 06:03:58;;;;;;;1.52;0.93;;;;;;;21.24;41.33;100867.69;5066534;28;20031;-70
2021/05/19 06:06:23;;;;;;;2.03;1.10;;;;;;;21.25;41.91;100864.00;5075624;28;20042;-71
2021/05/19 06:08:48;;;;;;;2.30;1.20;;;;;;;21.36;41.85;100872.94;5073762;28;20028;-68
2021/05/19 06:11:14;;;;;;;1.55;0.98;;;;;;;21.37;41.72;100867.47;5077228;28;20444;-68
2021/05/19 06:13:39;;;;;;;2.15;1.05;;;;;;;21.50;41.44;100861.84;5063412;28;20036;-67
2021/05/19 06:16:05;;;;;;;4.10;1.43;;;;;;;21.63;41.41;100859.75;5069308;28;20471;-67
2021/05/19 06:18:30;;;;;;;2.53;1.27;;;;;;;21.73;40.79;100873.13;5071722;28;20499;-66
2021/05/19 06:20:55;;;;;;;1.83;0.95;;;;;;;21.77;40.62;100874.53;5079320;28;20057;-68
2021/05/19 06:23:21;;;;;;;2.28;1.13;;;;;;;21.90;40.54;100876.94;5076182;28;20474;-67
2021/05/19 06:25:46;;;;;;;2.10;1.00;;;;;;;21.97;40.10;100878.91;5078723;28;20027;-69
2021/05/19 06:28:12;;;;;;;2.03;0.95;;;;;;;22.00;40.54;100880.47;5083725;28;20468;-67
2021/05/19 06:30:37;;;;;;;4.00;1.20;;;;;;;22.06;40.76;100884.41;5083709;28;20031;-67
2021/05/19 06:33:02;;;;;;;1.92;1.00;;;;;;;22.09;40.33;100886.81;5083131;28;20736;-67
2021/05/19 06:35:28;;;;;;;5.70;1.20;;;;;;;22.10;39.97;100888.50;5072252;28;20468;-66
2021/05/19 06:37:56;;;;;;;2.92;1.30;;;;;;;22.15;40.22;100887.13;5078253;28;20032;-67
2021/05/19 06:40:22;;;;;;;2.53;1.13;;;;;;;22.19;40.07;100893.88;5082087;28;20035;-68
2021/05/19 06:42:49;;;;;;;2.63;1.00;;;;;;;22.26;40.38;100882.56;5080961;28;20025;-68
2021/05/19 06:45:15;;;;;;;1.88;0.82;;;;;;;22.27;39.97;100889.63;5076444;28;20055;-68
2021/05/19 06:47:40;;;;;;;2.92;1.20;;;;;;;22.26;40.05;100891.47;5077539;28;20061;-67
2021/05/19 06:50:07;;;;;;;1.75;0.85;;;;;;;22.27;39.82;100890.47;5080430;28;20017;-68
2021/05/19 06:52:32;;;;;;;1.48;0.93;;;;;;;22.29;40.04;100891.19;5076300;28;20016;-68
2021/05/19 06:54:57;;;;;;;2.35;1.13;;;;;;;22.34;40.29;100888.06;5077558;28;20050;-68
2021/05/19 06:57:23;;;;;;;2.17;1.00;;;;;;;22.38;40.09;100897.50;5077720;28;20048;-67
2021/05/19 06:59:49;;;;;;;1.42;0.80;;;;;;;22.40;39.96;100895.53;5078815;28;20028;-68
2021/05/19 07:02:14;;;;;;;2.33;1.10;;;;;;;22.41;40.01;100891.88;5076701;28;20036;-68
2021/05/19 07:04:40;;;;;;;1.92;0.93;;;;;;;22.39;39.89;100886.66;5084005;28;20538;-67
2021/05/19 07:07:05;;;;;;;2.17;1.10;;;;;;;22.36;40.16;100888.75;5089126;28;20032;-67
2021/05/19 07:09:30;;;;;;;1.67;0.65;;;;;;;22.34;40.05;100891.59;5080920;28;20016;-69
2021/05/19 07:11:56;;;;;;;1.70;0.90;;;;;;;22.34;40.34;100885.41;5082521;28;20021;-67
2021/05/19 07:14:22;;;;;;;2.05;0.98;;;;;;;22.36;40.05;100888.75;5083035;28;20040;-67
2021/05/19 07:16:49;;;;;;;1.48;1.00;;;;;;;22.34;40.08;100883.56;5089275;28;20684;-68
2021/05/19 07:19:15;;;;;;;1.95;0.90;;;;;;;22.35;40.89;100887.91;5079918;28;20039;-68
2021/05/19 07:21:42;;;;;;;2.20;1.10;;;;;;;22.27;40.87;100893.16;5074397;28;20025;-69
2021/05/19 07:24:08;;;;;;;1.48;0.90;;;;;;;22.17;40.75;100903.03;5076395;28;20094;-68
2021/05/19 07:26:33;;;;;;;2.42;1.02;;;;;;;22.16;41.50;100906.69;5084852;28;20032;-68
2021/05/19 07:28:59;;;;;;;3.42;1.52;;;;;;;22.11;41.01;100901.72;5074358;28;20017;-68
2021/05/19 07:31:24;;;;;;;2.60;1.40;;;;;;;22.04;41.47;100902.44;5072288;28;20032;-68
2021/05/19 07:33:49;;;;;;;1.88;1.02;;;;;;;21.95;41.66;100910.34;5071730;28;20028;-68
2021/05/19 07:36:15;;;;;;;2.75;1.23;;;;;;;21.93;41.85;100906.94;5052633;28;20187;-69
2021/05/19 07:38:40;;;;;;;2.60;1.23;;;;;;;21.94;41.69;100908.63;5053354;28;20370;-68
2021/05/19 07:41:05;;;;;;;3.03;1.30;;;;;;;21.93;41.88;100898.91;5063214;28;20028;-68
2021/05/19 07:43:31;;;;;;;1.80;1.10;;;;;;;21.89;42.20;100905.53;5054022;28;20029;-68
2021/05/19 07:45:56;;;;;;;3.03;1.25;;;;;;;21.81;42.10;100899.19;5068586;28;20145;-68
2021/05/19 07:48:21;;;;;;;2.67;0.93;;;;;;;21.80;42.71;100903.69;5071530;28;20039;-69
2021/05/19 07:50:47;;;;;;;4.57;1.45;;;;;;;21.78;42.69;100900.34;5068809;28;20056;-67
2021/05/19 08:00:20;;;;;;;14.27;4.65;;;;;;;21.82;43.31;100900.91;5076222;27;20406;-68
2021/05/19 08:12:34;;;;;;;8.88;4.93;;;;;;;;;;5079653;28;20390;-63
2021/05/19 08:16:11;;;;;;;11.52;4.60;;;;;;;;;;5082587;27;20474;-48
2021/05/19 08:18:37;;;;;;;6.75;5.00;;;;;;;;;;5083401;28;20166;-42
2021/05/19 08:52:57;;;;;;;7.75;4.35;;;;;;;26.24;37.22;100907.50;5146199;27;20354;-47
2021/05/19 08:55:22;;;;;;;6.85;4.63;;;;;;;22.85;36.77;100914.44;5115461;27;20725;-45
2021/05/19 08:57:48;;;;;;;7.20;4.30;;;;;;;21.24;39.88;100917.63;5116604;27;20023;-48
2021/05/19 09:00:14;;;;;;;8.98;3.25;;;;;;;21.58;40.85;100915.50;5116771;27;20027;-57
2021/05/19 09:06:20;;;;;;;5.15;2.90;;;;;;;24.16;37.15;100907.91;5118090;27;20437;-58
2021/05/19 09:08:45;;;;;;;4.38;2.17;;;;;;;29.00;30.01;100899.88;5088459;28;20169;-62
2021/05/19 09:17:34;;;;;;;3.65;1.70;;;;;;;22.95;39.92;100909.09;5127281;27;20719;-59
2021/05/19 09:20:14;;;;;;;5.43;2.28;;;;;;;22.34;42.61;100907.66;5105077;28;20024;-63
2021/05/19 09:22:41;;;;;;;3.20;1.65;;;;;;;22.17;42.89;100905.72;5106918;28;20487;-60
2021/05/19 09:25:27;;;;;;;4.47;1.80;;;;;;;21.93;43.32;100914.13;5101831;28;20020;-60
2021/05/19 09:27:57;;;;;;;3.30;2.00;;;;;;;21.75;44.25;100912.16;5102027;28;20016;-60
2021/05/19 09:30:35;;;;;;;2.75;1.65;;;;;;;21.75;44.75;100916.66;5105698;28;20409;-59
2021/05/19 09:33:16;;;;;;;3.88;2.03;;;;;;;21.82;45.08;100912.44;5106788;28;20116;-59
2021/05/19 09:35:42;;;;;;;3.17;1.73;;;;;;;21.91;44.95;100916.94;5105723;28;20040;-60
2021/05/19 09:38:27;;;;;;;3.97;1.80;;;;;;;21.90;45.03;100909.06;5108857;28;20088;-59
2021/05/19 09:41:19;;;;;;;2.88;1.58;;;;;;;21.85;44.97;100909.50;5107952;28;20073;-59
2021/05/19 09:43:45;;;;;;;3.78;1.52;;;;;;;21.93;45.09;100912.28;5108948;28;20503;-59
2021/05/19 09:46:16;;;;;;;4.63;1.40;;;;;;;22.05;45.21;100907.66;5106943;28;20034;-61
2021/05/19 09:48:42;;;;;;;3.00;1.73;;;;;;;22.27;45.02;100901.19;5106419;28;20031;-61
2021/05/19 09:51:07;;;;;;;2.20;1.00;;;;;;;22.46;44.96;100895.81;5108117;28;20012;-59
2021/05/19 09:53:33;;;;;;;4.75;1.63;;;;;;;22.68;44.09;100893.78;5106416;28;20486;-60
2021/05/19 09:55:58;;;;;;;6.38;1.58;;;;;;;22.84;43.54;100895.84;5088895;28;20016;-60
2021/05/19 09:58:36;;;;;;;2.27;1.33;;;;;;;22.99;43.57;100891.72;5087883;28;20052;-61
2021/05/19 10:01:03;;;;;;;2.70;1.20;;;;;;;23.14;43.53;100887.53;5084969;28;20600;-62
2021/05/19 10:03:29;;;;;;;3.50;1.50;;;;;;;23.10;43.34;100896.03;5083974;28;20109;-60
2021/05/19 10:08:26;;;;;;;2.58;1.38;;;;;;;22.90;43.76;100896.06;5071971;28;20382;-61
2021/05/19 10:10:52;;;;;;;3.80;1.30;;;;;;;22.76;44.37;100890.34;5092601;28;20122;-60
2021/05/19 10:13:18;;;;;;;3.03;1.10;;;;;;;22.87;44.70;100892.84;5088492;28;20762;-60
2021/05/19 10:15:44;;;;;;;1.98;1.23;;;;;;;22.95;44.75;100893.00;5091024;28;20494;-62
2021/05/19 10:18:10;;;;;;;4.43;1.48;;;;;;;23.14;44.42;100881.34;5075581;28;20059;-61
2021/05/19 10:20:39;;;;;;;3.67;1.35;;;;;;;23.09;44.13;100880.94;5073325;28;20030;-61
2021/05/19 10:23:06;;;;;;;2.92;1.20;;;;;;;22.99;44.39;100893.56;5071536;28;20534;-60
2021/05/19 10:25:38;;;;;;;3.22;1.10;;;;;;;22.82;43.25;100887.94;5076269;28;20024;-59
2021/05/19 10:28:09;;;;;;;2.85;1.30;;;;;;;22.44;41.46;100881.72;5081539;28;20020;-60
2021/05/19 10:30:40;;;;;;;2.40;1.10;;;;;;;22.23;41.23;100887.25;5080775;28;20024;-60
2021/05/19 10:33:07;;;;;;;5.93;1.50;;;;;;;22.28;41.07;100884.13;5079767;28;20038;-60
2021/05/19 10:35:36;;;;;;;4.00;1.55;;;;;;;22.27;40.44;100879.78;5079308;28;20032;-61
2021/05/19 10:38:27;;;;;;;2.88;1.00;;;;;;;22.16;40.17;100864.72;5075949;28;20051;-60
2021/05/19 10:40:54;;;;;;;3.60;1.30;;;;;;;22.09;40.90;100868.91;5073003;28;20371;-60
2021/05/19 10:43:20;;;;;;;4.30;1.10;;;;;;;22.01;40.58;100874.13;5081790;28;20028;-56
2021/05/19 10:45:57;;;;;;;3.17;1.30;;;;;;;22.09;40.38;100876.94;5082933;28;20460;-58
2021/05/19 10:48:29;;;;;;;2.42;1.08;;;;;;;22.17;40.48;100862.88;5076068;28;20680;-58
2021/05/19 10:51:01;;;;;;;3.20;1.15;;;;;;;22.32;40.23;100855.22;5083074;28;20019;-57
2021/05/19 10:59:12;;;;;;;5.97;1.30;;;;;;;22.40;38.60;100842.81;5081997;28;20108;-57
2021/05/19 11:01:37;;;;;;;4.57;1.20;;;;;;;22.31;39.33;100856.22;5059366;28;20059;-57
2021/05/19 11:04:16;;;;;;;3.47;0.90;;;;;;;22.20;38.96;100857.25;5076182;28;20024;-57
2021/05/19 11:07:00;;;;;;;2.30;0.90;;;;;;;22.11;38.97;100847.34;5077649;28;20028;-60
2021/05/19 11:09:40;;;;;;;2.97;0.90;;;;;;;21.99;38.47;100857.38;5077130;28;20060;-59
2021/05/19 11:12:25;;;;;;;5.18;1.02;;;;;;;21.77;38.32;100853.97;5077337;28;20048;-59
2021/05/19 11:15:04;;;;;;;3.92;0.90;;;;;;;21.65;38.90;100851.59;5080070;28;20089;-58
2021/05/19 11:20:09;;;;;;;3.33;1.38;;;;;;;21.43;39.37;100852.69;5079690;28;20047;-59
2021/05/19 11:22:35;;;;;;;6.55;1.30;;;;;;;21.38;39.10;100846.91;5058562;28;20024;-59
2021/05/19 11:25:03;;;;;;;2.38;0.98;;;;;;;21.34;38.64;100848.16;5078723;28;20630;-59
2021/05/19 11:27:30;;;;;;;3.63;0.80;;;;;;;21.32;38.90;100845.59;5081093;28;20107;-59
2021/05/19 11:29:56;;;;;;;2.05;1.08;;;;;;;21.37;39.81;100842.53;5078092;28;20024;-59
2021/05/19 11:32:24;;;;;;;4.25;1.65;;;;;;;21.41;39.64;100842.13;5079218;28;20564;-59
2021/05/19 11:34:50;;;;;;;2.45;0.80;;;;;;;21.44;40.67;100849.06;5079263;28;20115;-59
2021/05/19 11:37:17;;;;;;;1.90;0.93;;;;;;;21.47;40.47;100848.75;5080021;28;20471;-60
2021/05/19 11:56:20;;;;;;;1.77;0.45;;;;;;;23.99;38.26;100836.28;5100273;27;20409;-42
2021/05/19 11:58:46;;;;;;;1.33;0.65;;;;;;;23.82;38.57;100835.28;5099154;28;20243;-40
2021/05/19 12:12:53;;;;;;;3.33;0.80;;;;;;;25.61;36.33;100826.50;5033974;28;20530;-44
2021/05/19 12:16:47;;;;;;;3.28;0.80;;;;;;;26.39;34.52;100824.13;5057212;27;20656;-60
2021/05/19 12:19:29;;;;;;;2.85;0.75;;;;;;;25.17;36.90;100832.13;4853610;28;122366;-57
2021/05/19 12:24:04;;;;;;;2.67;0.75;;;;;;;24.79;37.65;100823.56;4784568;28;101971;-55
2021/05/19 12:26:30;;;;;;;1.90;0.60;;;;;;;24.75;38.55;100819.47;4991258;28;20042;-57
2021/05/19 12:28:55;;;;;;;3.17;0.70;;;;;;;25.32;38.35;100818.88;5016374;28;20040;-42
2021/05/19 12:31:34;;;;;;;3.60;1.00;;;;;;;25.22;37.68;100819.03;5015418;28;20037;-49
2021/05/19 12:39:26;;;;;;;1.30;0.52;;;;;;;24.89;37.52;100823.41;4876254;27;74908;-64
2021/05/19 12:41:53;;;;;;;1.60;0.52;;;;;;;24.22;39.00;100831.25;5026087;28;20495;-64
2021/05/19 12:44:19;;;;;;;2.00;0.80;;;;;;;23.70;40.24;100825.81;5037808;28;20032;-64
2021/05/19 12:48:56;;;;;;;1.83;0.70;;;;;;;23.05;41.67;100825.94;4979852;27;20375;-63
2021/05/19 12:51:22;;;;;;;8.57;0.80;;;;;;;22.77;41.84;100825.91;5037657;28;20041;-64
2021/05/19 12:53:52;;;;;;;2.60;1.15;;;;;;;22.60;42.39;100830.22;5033014;28;20033;-67
2021/05/19 12:56:23;;;;;;;1.90;0.60;;;;;;;22.51;42.82;100830.25;5035869;28;20032;-65
2021/05/19 12:59:18;;;;;;;4.68;0.68;;;;;;;22.45;43.41;100824.47;5035200;28;20402;-66
2021/05/19 13:01:47;;;;;;;2.30;0.43;;;;;;;22.44;43.53;100830.81;5037348;28;20048;-66
2021/05/19 13:04:12;;;;;;;;;;;;;;;22.43;43.86;100828.31;5040425;28;20038;-68
2021/05/19 13:06:38;;;;;;;3.63;0.70;;;;;;;22.43;44.01;100830.97;5040684;28;19917;-68
2021/05/19 13:09:07;;;;;;;1.70;0.55;;;;;;;22.41;44.84;100825.75;5040147;28;20040;-70
2021/05/19 13:11:34;;;;;;;1.10;0.70;;;;;;;22.42;45.03;100837.31;5040876;28;20196;-67
2021/05/19 13:14:00;;;;;;;1.25;0.55;;;;;;;22.40;45.09;100825.91;5037460;28;20585;-65
2021/05/19 13:16:32;;;;;;;2.80;0.50;;;;;;;22.39;45.32;100833.09;5036531;28;20033;-65